Weather at Dallas Cowboys Heliport

Public forecast

Using degrees Fahrenheit for public forecast. Weather courtesy of forecast.io.

Closest aviation weather report (METAR) to Dallas Cowboys Heliport

Closest report is Grand Prairie Municipal Airport, 3.7 nm (6.8 km) SE.

2024/05/26 08:35 (retrieved 19 minutes ago)

KGPM 260835Z AUTO 18009G16KT 10SM CLR 26/20 A2968 RMK AO2 T02590201

Closest aviation forecast (TAF) to Dallas Cowboys Heliport

Closest forecast is Arlington Municipal Airport, 4.9 nm (9.0 km) S.

2024/05/26 06:39 (retrieved 2 hours ago)

TAF KGKY 260536Z 2606/2706 16016G26KT P6SM FEW045 SCT090 BKN250 FM260930 18015G25KT P6SM VCSH BKN015 FM261300 19016KT P6SM VCSH BKN035 FM261600 21012KT P6SM FEW045 SCT120 FM262300 24009KT P6SM SKC FM270400 20004KT P6SM SKC